Time;durP1;ratioP1;P1;durP2;ratioP2;P2;SDS_P1;SDS_P2;PMS_P1;PMS_P2;Temp;Humidity;BMP_temperature;BMP_pressure;BME280_temperature;BME280_humidity;BME280_pressure;Samples;Min_cycle;Max_cycle;Signal;HPM_P1;HPM_P2
2022/11/19 00:01:12;;;;;;;22.42;11.15;;;9.20;99.90;;;;;;4975038;28;20118;-59
2022/11/19 00:03:39;;;;;;;22.63;12.02;;;9.30;99.90;;;;;;4973977;28;20034;-64
2022/11/19 00:06:08;;;;;;;18.80;10.80;;;9.20;99.90;;;;;;4971341;28;20041;-58
2022/11/19 00:08:34;;;;;;;24.25;12.13;;;9.30;99.90;;;;;;4968044;28;20090;-60
2022/11/19 00:12:53;;;;;;;22.38;12.18;;;9.30;99.90;;;;;;4970237;28;20023;-61
2022/11/19 00:14:06;;;;;;;33.78;13.98;;;9.20;99.90;;;;;;4971146;28;20464;-61
2022/11/19 00:16:32;;;;;;;27.42;14.00;;;9.20;99.90;;;;;;4975033;28;20034;-60
2022/11/19 00:18:57;;;;;;;28.90;13.73;;;9.20;99.90;;;;;;4989307;23;20133;-58
2022/11/19 00:21:23;;;;;;;31.65;13.23;;;9.20;99.90;;;;;;4983975;28;20022;-55
2022/11/19 00:23:52;;;;;;;27.30;12.77;;;9.20;99.90;;;;;;4983976;28;20080;-58
2022/11/19 00:26:18;;;;;;;28.90;15.20;;;9.20;99.90;;;;;;4998552;28;20022;-55
2022/11/19 00:28:43;;;;;;;22.10;11.63;;;9.20;99.90;;;;;;4988439;28;20538;-58
2022/11/19 00:31:13;;;;;;;26.95;14.10;;;9.30;99.90;;;;;;4988837;28;20034;-58
2022/11/19 00:33:40;;;;;;;29.15;13.63;;;9.30;99.90;;;;;;4991839;28;20022;-58
2022/11/19 00:36:08;;;;;;;30.02;14.05;;;9.40;99.90;;;;;;4988524;28;20041;-58
2022/11/19 00:38:34;;;;;;;26.52;14.65;;;9.40;99.90;;;;;;4986220;28;20113;-57
2022/11/19 00:41:00;;;;;;;27.42;13.18;;;9.40;99.90;;;;;;4988636;28;20109;-57
2022/11/19 00:46:10;;;;;;;20.53;9.43;;;9.30;99.90;;;;;;4988164;28;20460;-57
2022/11/19 00:48:37;;;;;;;27.23;13.23;;;9.30;99.90;;;;;;4987279;28;20355;-58
2022/11/19 00:51:04;;;;;;;27.05;12.02;;;9.20;99.90;;;;;;4984842;28;20096;-57
2022/11/19 00:53:29;;;;;;;23.92;11.80;;;9.20;99.90;;;;;;4982460;28;20046;-57
2022/11/19 00:55:58;;;;;;;28.63;12.18;;;9.20;99.90;;;;;;4976325;28;20113;-54
2022/11/19 00:58:23;;;;;;;36.15;12.50;;;9.30;99.90;;;;;;4990045;28;20034;-57
2022/11/19 01:00:50;;;;;;;32.70;12.68;;;9.30;99.90;;;;;;4976641;28;20030;-57
2022/11/19 01:03:16;;;;;;;32.53;13.45;;;9.30;99.90;;;;;;4990843;28;20435;-58
2022/11/19 01:05:41;;;;;;;29.17;13.75;;;9.30;99.90;;;;;;4990339;28;20038;-57
2022/11/19 01:08:07;;;;;;;26.02;13.23;;;9.20;99.90;;;;;;4990857;28;20035;-57
2022/11/19 01:10:34;;;;;;;26.92;12.35;;;9.20;99.90;;;;;;4985594;28;20068;-58
2022/11/19 01:15:47;;;;;;;44.95;15.55;;;9.30;99.90;;;;;;4991856;28;20073;-55
2022/11/19 01:18:13;;;;;;;24.90;12.25;;;9.20;99.90;;;;;;4993111;28;20034;-54
2022/11/19 01:20:38;;;;;;;25.05;12.52;;;9.20;99.90;;;;;;4991026;28;20089;-56
2022/11/19 01:23:04;;;;;;;30.67;12.75;;;9.30;99.90;;;;;;4992501;28;20026;-57
2022/11/19 01:25:29;;;;;;;38.08;15.20;;;9.30;99.90;;;;;;4994001;28;20547;-55
2022/11/19 01:27:56;;;;;;;29.85;14.38;;;9.40;99.90;;;;;;4994451;28;20172;-55
2022/11/19 01:30:22;;;;;;;29.27;14.18;;;9.30;99.90;;;;;;4978608;28;20023;-55
2022/11/19 01:32:47;;;;;;;26.10;13.02;;;9.30;99.90;;;;;;4988241;28;20027;-56
2022/11/19 01:35:13;;;;;;;29.00;14.55;;;9.30;99.90;;;;;;4987723;28;20069;-55
2022/11/19 01:37:38;;;;;;;30.50;14.52;;;9.40;99.90;;;;;;4989568;28;20026;-55
2022/11/19 01:40:04;;;;;;;29.27;14.30;;;9.30;99.90;;;;;;4991282;28;20480;-56
2022/11/19 01:42:52;;;;;;;28.35;14.20;;;9.30;99.90;;;;;;4991052;28;20190;-57
2022/11/19 01:45:39;;;;;;;31.90;14.82;;;9.20;99.90;;;;;;4989711;28;20093;-55
2022/11/19 01:48:20;;;;;;;29.05;13.85;;;9.20;99.90;;;;;;4996450;28;20030;-55
2022/11/19 01:51:00;;;;;;;29.33;13.98;;;9.20;99.90;;;;;;4987737;28;20093;-58
2022/11/19 01:53:29;;;;;;;30.23;14.40;;;9.30;99.90;;;;;;4983777;28;20030;-57
2022/11/19 01:56:02;;;;;;;40.13;16.33;;;9.20;99.90;;;;;;4987225;28;20405;-53
2022/11/19 01:58:39;;;;;;;34.17;15.27;;;9.30;99.90;;;;;;4985978;28;20118;-58
2022/11/19 02:01:06;;;;;;;37.15;15.20;;;9.20;99.90;;;;;;4990406;28;20074;-55
2022/11/19 02:03:33;;;;;;;39.42;15.90;;;9.20;99.90;;;;;;4985813;28;20035;-54
2022/11/19 02:06:01;;;;;;;34.33;15.23;;;9.20;99.90;;;;;;4985991;28;20180;-57
2022/11/19 02:08:37;;;;;;;31.75;14.60;;;9.20;99.90;;;;;;4985599;28;20026;-57
2022/11/19 02:11:21;;;;;;;34.78;16.02;;;9.20;99.90;;;;;;4991258;28;20022;-55
2022/11/19 02:14:03;;;;;;;33.20;15.90;;;9.20;99.90;;;;;;4983959;28;20035;-58
2022/11/19 02:16:38;;;;;;;37.05;15.90;;;9.30;99.90;;;;;;4989530;28;20034;-57
2022/11/19 02:19:46;;;;;;;37.05;16.08;;;9.20;99.90;;;;;;4987335;28;20117;-57
2022/11/19 02:22:48;;;;;;;40.40;15.35;;;9.20;99.90;;;;;;4986813;28;20499;-54
2022/11/19 02:25:16;;;;;;;36.50;16.17;;;9.20;99.90;;;;;;4996724;28;20058;-57
2022/11/19 02:27:47;;;;;;;33.33;16.55;;;9.20;99.90;;;;;;4992179;28;20057;-59
2022/11/19 02:30:16;;;;;;;32.33;15.60;;;9.10;99.90;;;;;;4985630;28;20027;-58
2022/11/19 02:33:07;;;;;;;36.60;16.45;;;9.10;99.90;;;;;;4989198;28;20547;-54
2022/11/19 02:35:50;;;;;;;42.53;17.23;;;9.20;99.90;;;;;;4977636;28;20050;-59
2022/11/19 02:38:30;;;;;;;44.30;17.42;;;9.20;99.90;;;;;;4983879;28;20026;-55
2022/11/19 02:41:32;;;;;;;36.50;16.33;;;9.10;99.90;;;;;;4982176;28;20053;-54
2022/11/19 02:44:57;;;;;;;27.63;13.93;;;9.10;99.90;;;;;;4983694;28;20396;-54
2022/11/19 02:46:50;;;;;;;37.45;16.95;;;9.20;99.90;;;;;;4984659;28;20049;-57
2022/11/19 02:49:19;;;;;;;35.63;15.20;;;9.30;99.90;;;;;;4983803;28;20441;-55
2022/11/19 02:51:46;;;;;;;29.23;15.00;;;9.30;99.90;;;;;;4983177;28;20121;-56
2022/11/19 02:54:14;;;;;;;36.92;17.88;;;9.30;99.90;;;;;;4985067;28;20034;-54
2022/11/19 02:56:52;;;;;;;34.47;17.23;;;9.30;99.90;;;;;;4984008;28;20069;-57
2022/11/19 03:04:55;;;;;;;31.52;15.07;;;9.20;99.90;;;;;;4988112;28;20033;-58
2022/11/19 03:07:21;;;;;;;33.83;15.52;;;9.20;99.90;;;;;;4988562;28;20026;-55
2022/11/19 03:10:01;;;;;;;36.60;16.80;;;9.20;99.90;;;;;;4988422;28;20026;-56
2022/11/19 03:12:41;;;;;;;35.00;16.42;;;9.30;99.90;;;;;;4987888;28;20032;-55
2022/11/19 03:18:31;;;;;;;40.85;18.58;;;9.30;99.90;;;;;;4987085;28;20046;-58
2022/11/19 03:21:06;;;;;;;30.40;15.57;;;9.30;99.90;;;;;;4983352;28;20826;-57
2022/11/19 03:23:46;;;;;;;38.97;17.48;;;9.30;99.90;;;;;;4984628;28;20049;-58
2022/11/19 03:26:25;;;;;;;35.58;16.23;;;9.30;99.90;;;;;;4983491;28;20033;-58
2022/11/19 03:28:53;;;;;;;33.90;16.73;;;9.30;99.90;;;;;;4989084;28;20129;-57
2022/11/19 03:31:21;;;;;;;32.83;16.08;;;9.30;99.90;;;;;;4981335;28;20113;-57
2022/11/19 03:33:51;;;;;;;36.65;17.00;;;9.30;99.90;;;;;;4986509;28;20377;-56
2022/11/19 03:36:22;;;;;;;34.13;16.20;;;9.30;99.90;;;;;;4987640;28;20030;-56
2022/11/19 03:38:51;;;;;;;43.03;17.10;;;9.30;99.90;;;;;;4988853;28;20038;-56
2022/11/19 03:41:18;;;;;;;27.92;13.77;;;9.40;99.90;;;;;;4981565;28;20048;-54
2022/11/19 03:43:50;;;;;;;19.58;10.90;;;9.30;99.90;;;;;;4977142;28;20069;-55
2022/11/19 03:46:17;;;;;;;17.88;8.20;;;9.30;99.90;;;;;;4990372;28;20029;-58
2022/11/19 03:48:45;;;;;;;10.20;6.80;;;9.20;99.90;;;;;;4989209;28;20046;-54
2022/11/19 03:51:14;;;;;;;10.88;5.97;;;8.90;99.90;;;;;;4986515;28;20434;-54
2022/11/19 03:53:40;;;;;;;9.43;4.70;;;8.80;99.90;;;;;;4982634;28;20468;-55
2022/11/19 03:56:12;;;;;;;6.70;4.72;;;8.70;99.90;;;;;;4998092;28;20030;-57
2022/11/19 03:58:43;;;;;;;10.48;4.78;;;8.60;99.90;;;;;;4991818;28;20030;-56
2022/11/19 04:01:09;;;;;;;6.07;3.33;;;8.50;99.90;;;;;;4985128;28;20563;-56
2022/11/19 04:03:35;;;;;;;3.83;2.35;;;8.40;99.90;;;;;;4987485;28;20484;-59
2022/11/19 04:06:01;;;;;;;3.88;2.58;;;8.30;99.90;;;;;;4983295;28;20026;-58
2022/11/19 04:08:26;;;;;;;4.22;1.42;;;8.30;99.90;;;;;;4990844;28;20030;-55
2022/11/19 04:10:52;;;;;;;3.78;1.23;;;8.10;99.90;;;;;;4983855;28;20104;-56
2022/11/19 04:13:18;;;;;;;2.92;0.90;;;8.00;99.90;;;;;;4985004;28;20027;-55
2022/11/19 04:15:43;;;;;;;1.67;1.05;;;7.80;99.90;;;;;;4990150;28;20549;-59
2022/11/19 04:18:09;;;;;;;6.88;1.25;;;7.70;99.90;;;;;;4984080;28;20038;-58
2022/11/19 04:20:34;;;;;;;1.70;1.10;;;7.50;99.90;;;;;;4986424;28;20431;-58
2022/11/19 04:23:00;;;;;;;1.70;1.02;;;7.20;99.90;;;;;;4986095;28;20092;-55
2022/11/19 04:25:25;;;;;;;3.15;1.27;;;7.10;99.90;;;;;;4985767;28;20102;-55
2022/11/19 04:27:51;;;;;;;1.80;1.20;;;7.00;99.90;;;;;;4986487;28;20484;-55
2022/11/19 04:30:17;;;;;;;1.95;1.02;;;7.10;99.90;;;;;;4982552;28;21149;-59
2022/11/19 04:32:42;;;;;;;4.88;1.10;;;7.00;99.90;;;;;;4985727;28;20524;-57
2022/11/19 04:35:08;;;;;;;5.30;1.63;;;6.90;99.90;;;;;;4985151;28;20038;-56
2022/11/19 04:37:34;;;;;;;2.88;1.42;;;6.90;99.90;;;;;;4990350;28;20027;-60
2022/11/19 04:40:00;;;;;;;1.98;1.50;;;6.80;99.90;;;;;;4988807;28;20485;-59
2022/11/19 04:42:25;;;;;;;3.60;1.55;;;6.80;99.90;;;;;;4984790;28;20883;-56
2022/11/19 04:44:51;;;;;;;2.30;1.55;;;6.70;99.90;;;;;;4989106;28;20029;-57
2022/11/19 04:47:16;;;;;;;3.47;1.80;;;6.70;99.90;;;;;;4989557;28;20033;-60
2022/11/19 04:49:42;;;;;;;3.45;1.65;;;6.70;99.90;;;;;;4991036;28;20480;-58
2022/11/19 04:52:08;;;;;;;3.10;1.45;;;6.60;99.90;;;;;;4990452;28;20038;-57
2022/11/19 04:54:33;;;;;;;2.58;1.85;;;6.50;99.90;;;;;;4990920;28;20026;-58
2022/11/19 04:56:59;;;;;;;3.80;2.20;;;6.50;99.90;;;;;;4997950;28;20088;-57
2022/11/19 04:59:24;;;;;;;3.13;2.30;;;6.40;99.90;;;;;;4990434;28;20037;-56
2022/11/19 05:01:50;;;;;;;4.85;2.35;;;6.40;99.90;;;;;;4989005;28;20030;-59
2022/11/19 05:04:16;;;;;;;4.82;2.58;;;6.40;99.90;;;;;;4988093;28;20488;-59
2022/11/19 05:06:41;;;;;;;6.38;2.70;;;6.40;99.90;;;;;;4995702;28;20057;-59
2022/11/19 05:09:07;;;;;;;3.88;2.22;;;6.40;99.90;;;;;;4996782;28;20018;-59
2022/11/19 05:11:32;;;;;;;7.18;2.90;;;6.40;99.90;;;;;;4989524;28;20098;-59
2022/11/19 05:13:58;;;;;;;5.07;2.70;;;6.30;99.90;;;;;;4989928;28;20022;-58
2022/11/19 05:16:23;;;;;;;6.13;2.92;;;6.40;99.90;;;;;;4989514;28;20807;-59
2022/11/19 05:18:49;;;;;;;6.32;3.20;;;6.50;99.90;;;;;;4989457;28;20058;-58
2022/11/19 05:21:14;;;;;;;6.03;3.70;;;6.50;99.90;;;;;;4989189;28;20026;-58
2022/11/19 05:23:40;;;;;;;8.15;4.07;;;6.20;99.90;;;;;;4988428;28;20065;-58
2022/11/19 05:26:05;;;;;;;6.60;3.35;;;6.10;99.90;;;;;;4996879;28;20026;-59
2022/11/19 05:28:31;;;;;;;6.53;3.22;;;5.90;99.90;;;;;;4997586;28;20042;-58
2022/11/19 05:30:57;;;;;;;7.82;4.22;;;6.00;99.90;;;;;;4984243;28;20037;-58
2022/11/19 05:33:23;;;;;;;8.63;4.10;;;5.90;99.90;;;;;;4990028;28;20432;-58
2022/11/19 05:35:49;;;;;;;7.68;3.78;;;5.80;99.90;;;;;;4987776;28;20117;-57
2022/11/19 05:38:14;;;;;;;9.77;4.47;;;5.90;99.90;;;;;;4972261;28;20042;-57
2022/11/19 05:40:42;;;;;;;10.57;5.60;;;5.90;99.90;;;;;;4986658;28;20073;-57
2022/11/19 05:43:07;;;;;;;14.40;6.90;;;5.80;99.90;;;;;;4990817;28;20030;-59
2022/11/19 05:45:33;;;;;;;12.93;5.65;;;5.80;99.90;;;;;;4988334;28;20032;-58
2022/11/19 05:47:59;;;;;;;14.10;6.60;;;5.70;99.90;;;;;;4993513;28;20058;-59
2022/11/19 05:50:24;;;;;;;12.00;5.45;;;5.60;99.90;;;;;;4988368;28;20042;-59
2022/11/19 05:52:50;;;;;;;11.60;5.93;;;5.60;99.90;;;;;;4983339;28;20100;-59
2022/11/19 05:55:15;;;;;;;15.63;7.40;;;5.70;99.90;;;;;;4991697;28;20035;-58
2022/11/19 05:57:41;;;;;;;18.02;7.55;;;5.60;99.90;;;;;;4994939;28;20039;-57
2022/11/19 06:00:10;;;;;;;19.30;7.60;;;5.50;99.90;;;;;;4987738;28;20073;-57
2022/11/19 06:02:35;;;;;;;17.40;7.95;;;5.40;99.90;;;;;;4990314;28;20041;-57
2022/11/19 06:05:01;;;;;;;15.45;7.55;;;5.50;99.90;;;;;;4978300;28;20026;-57
2022/11/19 06:07:26;;;;;;;18.55;8.13;;;5.50;99.90;;;;;;4989257;28;20104;-54
2022/11/19 06:09:52;;;;;;;21.25;8.43;;;5.50;99.90;;;;;;4981592;28;20077;-56
2022/11/19 06:12:17;;;;;;;19.17;9.35;;;5.60;99.90;;;;;;4991104;28;20480;-55
2022/11/19 06:14:43;;;;;;;23.60;10.98;;;5.50;99.90;;;;;;4990897;28;20038;-54
2022/11/19 06:17:09;;;;;;;23.65;10.15;;;5.40;99.90;;;;;;4989354;28;20034;-57
2022/11/19 06:19:34;;;;;;;22.35;10.15;;;5.40;99.90;;;;;;4986118;28;20026;-58
2022/11/19 06:22:00;;;;;;;23.88;11.57;;;5.30;99.90;;;;;;4986066;28;20065;-57
2022/11/19 06:24:26;;;;;;;22.88;11.00;;;5.40;99.90;;;;;;4988130;28;20109;-56
2022/11/19 06:26:51;;;;;;;27.15;11.85;;;5.30;99.90;;;;;;4987066;28;20030;-56
2022/11/19 06:29:18;;;;;;;28.10;12.05;;;5.30;99.90;;;;;;4988269;28;20514;-56
2022/11/19 06:31:43;;;;;;;30.23;12.32;;;5.30;99.90;;;;;;4985993;28;20385;-57
2022/11/19 06:34:09;;;;;;;30.73;11.88;;;5.30;99.90;;;;;;4984122;28;20034;-57
2022/11/19 06:36:35;;;;;;;27.63;12.38;;;5.30;99.90;;;;;;4982103;28;20058;-60
2022/11/19 06:39:00;;;;;;;32.15;12.95;;;5.20;99.90;;;;;;4965066;28;20120;-57
2022/11/19 06:41:26;;;;;;;31.02;13.55;;;5.20;99.90;;;;;;4989275;28;20037;-57
2022/11/19 06:43:52;;;;;;;25.88;13.13;;;5.10;99.90;;;;;;4984981;28;20037;-57
2022/11/19 06:46:17;;;;;;;31.30;13.20;;;5.10;99.90;;;;;;4991371;28;20583;-56
2022/11/19 06:48:43;;;;;;;31.77;13.38;;;5.00;99.90;;;;;;4985736;28;20083;-55
2022/11/19 06:51:08;;;;;;;28.75;14.10;;;5.10;99.90;;;;;;4980222;28;20065;-58
2022/11/19 06:53:34;;;;;;;31.25;13.75;;;5.00;99.90;;;;;;4990625;28;20088;-54
2022/11/19 06:56:02;;;;;;;29.48;13.85;;;5.10;99.90;;;;;;4971704;28;20469;-58
2022/11/19 06:58:28;;;;;;;32.70;15.55;;;5.00;99.90;;;;;;4989446;28;20053;-56
2022/11/19 07:00:54;;;;;;;29.33;13.93;;;5.00;99.90;;;;;;4982754;28;20027;-58
2022/11/19 07:03:21;;;;;;;34.97;14.38;;;5.00;99.90;;;;;;4986195;28;20019;-56
2022/11/19 07:06:07;;;;;;;35.53;15.80;;;5.00;99.90;;;;;;4988764;28;20370;-56
2022/11/19 07:08:34;;;;;;;33.88;14.95;;;4.90;99.90;;;;;;4986672;28;20041;-56
2022/11/19 07:11:00;;;;;;;39.63;14.30;;;4.80;99.90;;;;;;4987210;28;20026;-58
2022/11/19 07:13:56;;;;;;;31.65;14.07;;;4.80;99.90;;;;;;4994645;28;20420;-56
2022/11/19 07:16:14;;;;;;;32.45;14.15;;;4.80;99.90;;;;;;4984994;28;20038;-56
2022/11/19 07:18:40;;;;;;;34.65;13.82;;;4.80;99.90;;;;;;4984400;28;20027;-58
2022/11/19 07:21:05;;;;;;;34.38;15.40;;;4.90;99.90;;;;;;4989228;28;20030;-55
2022/11/19 07:23:31;;;;;;;37.92;16.23;;;4.90;99.90;;;;;;4986215;28;20440;-54
2022/11/19 07:26:00;;;;;;;30.25;14.18;;;4.80;99.90;;;;;;4988125;28;20022;-54
2022/11/19 07:28:26;;;;;;;37.03;15.98;;;4.80;99.90;;;;;;4984583;28;20037;-55
2022/11/19 07:30:51;;;;;;;33.15;14.90;;;4.80;99.90;;;;;;4984624;28;20030;-56
2022/11/19 07:33:16;;;;;;;34.35;15.95;;;4.70;99.90;;;;;;4990434;28;20022;-54
2022/11/19 07:35:42;;;;;;;41.30;17.92;;;4.60;99.90;;;;;;4989165;28;20030;-58
2022/11/19 07:38:07;;;;;;;38.03;16.98;;;4.60;99.90;;;;;;4984564;28;20431;-57
2022/11/19 07:40:33;;;;;;;36.42;16.60;;;4.60;99.90;;;;;;4988540;28;20014;-55
2022/11/19 07:42:58;;;;;;;38.70;16.10;;;4.70;99.90;;;;;;4984675;28;20084;-54
2022/11/19 07:45:24;;;;;;;39.47;16.42;;;4.60;99.90;;;;;;4980369;28;20710;-57
2022/11/19 07:47:49;;;;;;;40.10;16.98;;;4.60;99.90;;;;;;4979329;28;20038;-57
2022/11/19 07:50:16;;;;;;;42.10;18.42;;;4.60;99.90;;;;;;4984598;28;20054;-59
2022/11/19 07:52:42;;;;;;;37.63;16.10;;;4.70;99.90;;;;;;4982697;28;20568;-60
2022/11/19 07:55:08;;;;;;;38.17;17.23;;;4.70;99.90;;;;;;4982679;28;20042;-59
2022/11/19 07:57:34;;;;;;;39.88;16.60;;;4.70;99.90;;;;;;4987559;28;20029;-60
2022/11/19 08:00:00;;;;;;;41.47;17.27;;;4.80;99.90;;;;;;4980583;28;20031;-58
2022/11/19 08:02:25;;;;;;;45.30;19.23;;;4.70;99.90;;;;;;4982772;28;20062;-58
2022/11/19 08:04:51;;;;;;;41.28;17.15;;;4.70;99.90;;;;;;4983228;28;20025;-59
2022/11/19 08:07:16;;;;;;;52.20;20.48;;;4.80;99.90;;;;;;4982890;28;20034;-60
2022/11/19 08:09:42;;;;;;;39.00;17.58;;;4.80;99.90;;;;;;4985702;28;20106;-60
2022/11/19 08:12:07;;;;;;;39.25;17.95;;;4.70;99.90;;;;;;4984504;28;20392;-59
2022/11/19 08:14:33;;;;;;;46.45;19.38;;;4.80;99.90;;;;;;4987209;28;20026;-60
2022/11/19 08:19:43;;;;;;;41.88;18.27;;;4.80;99.90;;;;;;4985273;28;20042;-60
2022/11/19 08:22:12;;;;;;;44.65;19.48;;;4.80;99.90;;;;;;4995107;28;20034;-59
2022/11/19 08:24:37;;;;;;;44.40;18.10;;;4.80;99.90;;;;;;4990759;28;20030;-60
2022/11/19 08:27:04;;;;;;;46.50;19.95;;;4.70;99.90;;;;;;4990136;28;20037;-59
2022/11/19 08:29:29;;;;;;;37.38;17.33;;;4.70;99.90;;;;;;4987544;28;20801;-60
2022/11/19 08:31:55;;;;;;;42.03;17.70;;;4.70;99.90;;;;;;4998536;28;20030;-60
2022/11/19 08:34:21;;;;;;;48.10;20.02;;;4.70;99.90;;;;;;4988130;28;20057;-60
2022/11/19 08:36:46;;;;;;;41.15;17.92;;;4.80;99.90;;;;;;4986215;28;20023;-59
2022/11/19 08:39:12;;;;;;;44.20;19.20;;;4.70;99.90;;;;;;4986981;28;20404;-59
2022/11/19 08:44:22;;;;;;;49.97;18.92;;;4.80;99.90;;;;;;4982841;28;20030;-60
2022/11/19 08:46:47;;;;;;;42.28;19.23;;;4.90;99.90;;;;;;4989730;28;20035;-59
2022/11/19 08:49:13;;;;;;;39.05;17.83;;;4.90;99.90;;;;;;4981167;28;20097;-59
2022/11/19 08:51:39;;;;;;;44.90;18.60;;;4.90;99.90;;;;;;4990464;28;20042;-59
2022/11/19 08:54:05;;;;;;;40.20;18.02;;;4.90;99.90;;;;;;4993371;28;20026;-58
2022/11/19 08:56:30;;;;;;;41.28;17.45;;;5.00;99.90;;;;;;4990381;28;20543;-59
2022/11/19 08:58:56;;;;;;;37.50;15.98;;;4.90;99.90;;;;;;4987552;28;20050;-59
2022/11/19 09:01:22;;;;;;;35.15;15.38;;;4.70;99.90;;;;;;4983990;28;20033;-59
2022/11/19 09:03:48;;;;;;;37.65;17.13;;;4.70;99.90;;;;;;4989545;28;20560;-59
2022/11/19 09:06:14;;;;;;;40.55;16.58;;;4.70;99.90;;;;;;4983654;28;20105;-59
2022/11/19 09:08:40;;;;;;;35.83;15.52;;;4.70;99.90;;;;;;4983848;28;20113;-59
2022/11/19 09:11:08;;;;;;;33.15;14.05;;;4.70;99.90;;;;;;4985179;28;20121;-58
2022/11/19 09:13:34;;;;;;;37.80;16.67;;;4.60;99.90;;;;;;4989573;28;20031;-59
2022/11/19 09:15:59;;;;;;;37.95;15.93;;;4.70;99.90;;;;;;4996325;28;20037;-59
2022/11/19 09:18:25;;;;;;;34.67;15.38;;;4.80;99.90;;;;;;4987745;28;20033;-58
2022/11/19 09:20:54;;;;;;;38.72;15.55;;;4.90;99.90;;;;;;4984490;28;20022;-59
2022/11/19 09:23:20;;;;;;;34.75;15.25;;;4.80;99.90;;;;;;4988127;28;20031;-58
2022/11/19 09:26:01;;;;;;;34.90;16.48;;;4.90;99.90;;;;;;4983935;28;20043;-59
2022/11/19 09:28:27;;;;;;;34.20;14.68;;;4.90;99.90;;;;;;4987548;28;20031;-58
2022/11/19 09:31:00;;;;;;;32.13;15.05;;;4.90;99.90;;;;;;4986014;28;20030;-59
2022/11/19 09:33:27;;;;;;;31.08;14.13;;;4.80;99.90;;;;;;4984707;28;20073;-57
2022/11/19 09:35:53;;;;;;;29.85;13.65;;;4.70;99.90;;;;;;4982015;28;20041;-60
2022/11/19 09:38:18;;;;;;;32.22;13.32;;;4.70;99.90;;;;;;4986906;28;20030;-59
2022/11/19 09:40:51;;;;;;;29.45;13.55;;;4.70;99.90;;;;;;4991873;28;20101;-58
2022/11/19 09:43:47;;;;;;;32.08;13.98;;;4.80;99.90;;;;;;4985974;28;20030;-56
2022/11/19 09:46:24;;;;;;;33.55;14.77;;;5.00;99.90;;;;;;4990202;28;20117;-59
2022/11/19 09:48:53;;;;;;;35.83;15.15;;;5.00;99.90;;;;;;4994417;28;20031;-59
2022/11/19 09:51:29;;;;;;;31.48;13.65;;;5.00;99.90;;;;;;4985080;28;20057;-59
2022/11/19 09:54:00;;;;;;;32.83;13.85;;;5.00;99.90;;;;;;4992409;28;20039;-58
2022/11/19 09:56:34;;;;;;;34.58;14.77;;;5.00;99.90;;;;;;4986123;28;20528;-61
2022/11/19 09:59:23;;;;;;;36.22;15.35;;;5.10;99.90;;;;;;4985213;28;20038;-61
2022/11/19 10:01:48;;;;;;;29.38;14.13;;;5.20;99.90;;;;;;4993579;28;20037;-61
2022/11/19 10:04:26;;;;;;;26.27;12.82;;;4.90;99.90;;;;;;4987497;28;20026;-61
2022/11/19 10:07:05;;;;;;;32.13;13.88;;;5.00;99.90;;;;;;4994235;28;20033;-60
2022/11/19 10:09:45;;;;;;;34.75;14.75;;;5.10;99.90;;;;;;4986989;28;20089;-61
2022/11/19 10:12:41;;;;;;;27.85;12.15;;;5.00;99.90;;;;;;4987932;28;22221;-58
2022/11/19 10:15:34;;;;;;;26.58;13.23;;;5.00;99.90;;;;;;4992274;28;20047;-58
2022/11/19 10:18:02;;;;;;;29.85;13.02;;;4.90;99.90;;;;;;4991095;28;20456;-59
2022/11/19 10:20:57;;;;;;;26.45;12.20;;;5.00;99.90;;;;;;4996541;28;20468;-61
2022/11/19 10:23:43;;;;;;;26.67;12.38;;;5.00;99.90;;;;;;4987738;28;20029;-61
2022/11/19 10:26:13;;;;;;;32.33;13.20;;;5.00;99.90;;;;;;4987550;28;20381;-61
2022/11/19 10:28:44;;;;;;;28.35;12.60;;;5.10;99.90;;;;;;4988714;28;20030;-61
2022/11/19 10:31:28;;;;;;;29.90;13.00;;;4.90;99.90;;;;;;4988314;28;20162;-60
2022/11/19 10:33:56;;;;;;;31.90;13.18;;;4.90;99.90;;;;;;4986835;28;20559;-59
2022/11/19 10:36:27;;;;;;;32.50;13.18;;;4.90;99.90;;;;;;4984296;28;20437;-59
2022/11/19 10:39:11;;;;;;;27.83;12.88;;;4.90;99.90;;;;;;4985538;28;20085;-60
2022/11/19 10:41:52;;;;;;;26.98;12.68;;;5.00;99.90;;;;;;4986616;28;20035;-61
2022/11/19 10:47:32;;;;;;;28.05;12.60;;;5.00;99.90;;;;;;4993176;28;20038;-61
2022/11/19 10:49:57;;;;;;;25.75;12.13;;;4.90;99.90;;;;;;4989505;28;20395;-60
2022/11/19 10:52:33;;;;;;;27.40;12.63;;;4.90;99.90;;;;;;4989080;28;20034;-63
2022/11/19 10:55:16;;;;;;;27.80;12.15;;;4.90;99.90;;;;;;4984247;28;20397;-61
2022/11/19 10:57:44;;;;;;;26.50;12.38;;;5.00;99.90;;;;;;4988589;28;20061;-61
2022/11/19 11:00:10;;;;;;;27.27;11.57;;;5.00;99.90;;;;;;4986173;28;20034;-59
2022/11/19 11:02:44;;;;;;;24.45;12.07;;;5.00;99.90;;;;;;4991959;28;20030;-60
2022/11/19 11:05:13;;;;;;;31.60;12.53;;;5.10;99.90;;;;;;4988762;28;20023;-59
2022/11/19 11:07:45;;;;;;;24.80;11.52;;;5.00;99.90;;;;;;4988621;28;20032;-59
2022/11/19 11:10:44;;;;;;;26.90;13.15;;;5.00;99.90;;;;;;4986252;28;20085;-60
2022/11/19 11:16:45;;;;;;;27.48;12.18;;;4.90;99.90;;;;;;4990098;28;20049;-60
2022/11/19 11:19:13;;;;;;;27.42;11.90;;;4.80;99.90;;;;;;4988499;28;20030;-59
2022/11/19 11:21:41;;;;;;;23.90;11.82;;;5.00;99.90;;;;;;4987167;28;20022;-57
2022/11/19 11:24:09;;;;;;;25.85;11.38;;;5.00;99.90;;;;;;4984047;28;20030;-59
2022/11/19 11:26:36;;;;;;;23.50;11.40;;;5.10;99.90;;;;;;4988669;28;20113;-61
2022/11/19 11:29:02;;;;;;;22.67;10.65;;;5.10;99.90;;;;;;4988647;28;20041;-61
2022/11/19 11:31:33;;;;;;;27.15;12.48;;;5.10;99.90;;;;;;4985174;28;20026;-59
2022/11/19 11:34:01;;;;;;;24.25;10.52;;;5.20;99.90;;;;;;4992796;28;20105;-61
2022/11/19 11:36:29;;;;;;;20.42;9.85;;;5.10;99.90;;;;;;4984263;28;20018;-61
2022/11/19 11:38:57;;;;;;;24.65;10.45;;;5.10;99.90;;;;;;4985452;28;20060;-61
2022/11/19 11:41:35;;;;;;;26.02;12.15;;;5.00;99.90;;;;;;4988346;28;20031;-61
2022/11/19 11:44:05;;;;;;;27.13;11.38;;;4.90;99.90;;;;;;4992800;28;20080;-60
2022/11/19 11:46:55;;;;;;;21.08;9.23;;;4.90;99.90;;;;;;4992904;28;20033;-60
2022/11/19 11:49:44;;;;;;;23.17;10.75;;;5.00;99.90;;;;;;4987167;28;20026;-61
2022/11/19 11:52:20;;;;;;;20.30;9.50;;;4.90;99.90;;;;;;4989941;28;20022;-61
2022/11/19 11:55:05;;;;;;;19.35;9.70;;;4.90;99.90;;;;;;4989470;28;20385;-60
2022/11/19 11:57:33;;;;;;;25.90;10.93;;;5.00;99.90;;;;;;4975862;28;20524;-60
2022/11/19 12:00:01;;;;;;;21.17;10.02;;;5.00;99.90;;;;;;4991751;28;20035;-59
2022/11/19 12:02:34;;;;;;;18.55;8.65;;;5.00;99.90;;;;;;4994708;28;20507;-60
2022/11/19 12:05:06;;;;;;;22.75;10.30;;;5.10;99.90;;;;;;4968213;28;20027;-60
2022/11/19 12:08:00;;;;;;;23.20;11.25;;;5.10;99.90;;;;;;4988334;28;20562;-60
2022/11/19 12:10:43;;;;;;;19.87;6.93;;;5.20;99.90;;;;;;4975526;28;20439;-60
2022/11/19 12:13:34;;;;;;;22.65;10.25;;;5.30;99.90;;;;;;4991179;28;20030;-61
2022/11/19 12:16:30;;;;;;;19.83;9.20;;;5.20;99.90;;;;;;4984495;28;20109;-61
2022/11/19 12:19:21;;;;;;;19.55;9.38;;;5.20;99.90;;;;;;4987707;28;20064;-59
2022/11/19 12:22:05;;;;;;;22.45;9.95;;;5.30;99.90;;;;;;4993400;28;20041;-60
2022/11/19 12:24:45;;;;;;;21.38;9.95;;;5.30;99.90;;;;;;4988482;28;20030;-58
2022/11/19 12:27:26;;;;;;;19.92;10.10;;;5.10;99.90;;;;;;4996106;28;20436;-61
2022/11/19 12:30:17;;;;;;;18.02;9.48;;;5.20;99.90;;;;;;4991559;28;20034;-60
2022/11/19 12:32:48;;;;;;;20.85;9.60;;;5.30;99.90;;;;;;4993640;28;20030;-60
2022/11/19 12:35:48;;;;;;;19.77;9.77;;;5.30;99.90;;;;;;5001098;23;20050;-65
2022/11/19 12:38:35;;;;;;;20.13;8.90;;;5.40;99.90;;;;;;5008482;28;20114;-63
2022/11/19 12:41:12;;;;;;;26.20;9.35;;;5.50;99.90;;;;;;5015471;28;20022;-62
2022/11/19 12:44:00;;;;;;;23.38;11.20;;;5.50;99.90;;;;;;5005174;28;20496;-65
2022/11/19 12:46:35;;;;;;;22.17;9.85;;;5.60;99.90;;;;;;4999541;28;20030;-64
2022/11/19 12:49:00;;;;;;;;;;;5.60;99.90;;;;;;4992032;28;20081;-65
2022/11/19 12:51:44;;;;;;;20.17;9.48;;;5.60;99.90;;;;;;4990269;28;19913;-61
2022/11/19 12:54:21;;;;;;;21.42;10.30;;;5.50;99.90;;;;;;4981710;28;20026;-65
2022/11/19 12:57:05;;;;;;;23.70;11.05;;;5.50;99.90;;;;;;4992294;28;20058;-66
2022/11/19 12:59:40;;;;;;;23.65;10.32;;;5.50;99.90;;;;;;4989187;28;20035;-64
2022/11/19 13:02:21;;;;;;;21.85;10.32;;;5.40;99.90;;;;;;4994100;28;20461;-63
2022/11/19 13:04:56;;;;;;;19.65;10.95;;;5.30;99.90;;;;;;4993303;28;20034;-64
2022/11/19 13:07:28;;;;;;;23.30;10.45;;;5.30;99.90;;;;;;4984503;28;20030;-63
2022/11/19 13:10:16;;;;;;;24.23;10.13;;;5.30;99.90;;;;;;4993311;28;20030;-60
2022/11/19 13:12:48;;;;;;;22.27;10.68;;;5.30;99.90;;;;;;4985688;28;20031;-61
2022/11/19 13:15:42;;;;;;;24.48;10.55;;;5.30;99.90;;;;;;4998272;28;20213;-60
2022/11/19 13:18:15;;;;;;;19.90;8.52;;;5.40;99.90;;;;;;4993957;28;20515;-62
2022/11/19 13:20:51;;;;;;;22.00;10.90;;;5.30;99.90;;;;;;4998574;28;20027;-61
2022/11/19 13:23:24;;;;;;;20.65;8.93;;;5.20;99.90;;;;;;4999336;28;20037;-62
2022/11/19 13:25:55;;;;;;;20.15;9.75;;;5.20;99.90;;;;;;4988037;28;20030;-63